sensor_id;sensor_type;location;lat;lon;timestamp;pressure;altitude;pressure_sealevel;temperature;humidity
54592;BME280;40488;48.558;18.150;2023-04-15T00:01:18;98461.88;;;6.34;86.03
54592;BME280;40488;48.558;18.150;2023-04-15T00:03:51;98453.44;;;6.33;85.70
54592;BME280;40488;48.558;18.150;2023-04-15T00:06:22;98452.59;;;6.30;85.57
54592;BME280;40488;48.558;18.150;2023-04-15T00:08:51;98459.38;;;6.20;85.67
54592;BME280;40488;48.558;18.150;2023-04-15T00:11:20;98468.69;;;6.17;85.37
54592;BME280;40488;48.558;18.150;2023-04-15T00:13:51;98457.72;;;6.10;84.99
54592;BME280;40488;48.558;18.150;2023-04-15T00:16:20;98460.28;;;6.08;85.33
54592;BME280;40488;48.558;18.150;2023-04-15T00:18:50;98470.38;;;6.21;84.64
54592;BME280;40488;48.558;18.150;2023-04-15T00:21:19;98473.72;;;6.23;84.97
54592;BME280;40488;48.558;18.150;2023-04-15T00:23:49;98467.81;;;6.22;84.58
54592;BME280;40488;48.558;18.150;2023-04-15T00:26:20;98475.41;;;6.25;84.72
54592;BME280;40488;48.558;18.150;2023-04-15T00:28:49;98466.16;;;6.21;85.02
54592;BME280;40488;48.558;18.150;2023-04-15T00:31:18;98468.69;;;6.17;84.69
54592;BME280;40488;48.558;18.150;2023-04-15T00:33:47;98470.38;;;6.15;84.50
54592;BME280;40488;48.558;18.150;2023-04-15T00:36:16;98468.69;;;6.17;85.08
54592;BME280;40488;48.558;18.150;2023-04-15T00:38:45;98461.97;;;6.08;84.31
54592;BME280;40488;48.558;18.150;2023-04-15T00:41:16;98467.03;;;6.05;84.46
54592;BME280;40488;48.558;18.150;2023-04-15T00:43:46;98468.72;;;6.00;84.34
54592;BME280;40488;48.558;18.150;2023-04-15T00:46:15;98457.78;;;5.95;84.34
54592;BME280;40488;48.558;18.150;2023-04-15T00:48:46;98457.78;;;5.92;84.22
54592;BME280;40488;48.558;18.150;2023-04-15T00:51:15;98459.44;;;5.99;84.20
54592;BME280;40488;48.558;18.150;2023-04-15T00:53:44;98450.16;;;6.01;84.68
54592;BME280;40488;48.558;18.150;2023-04-15T00:56:14;98441.72;;;6.00;84.46
54592;BME280;40488;48.558;18.150;2023-04-15T00:58:43;98444.25;;;5.93;84.48
54592;BME280;40488;48.558;18.150;2023-04-15T01:01:12;98444.25;;;5.96;83.96
54592;BME280;40488;48.558;18.150;2023-04-15T01:03:41;98442.59;;;5.95;83.99
54592;BME280;40488;48.558;18.150;2023-04-15T01:06:10;98442.56;;;5.96;84.15
54592;BME280;40488;48.558;18.150;2023-04-15T01:08:39;98445.97;;;5.97;83.51
54592;BME280;40488;48.558;18.150;2023-04-15T01:11:09;98445.94;;;5.95;83.52
54592;BME280;40488;48.558;18.150;2023-04-15T01:13:41;98441.72;;;6.03;83.32
54592;BME280;40488;48.558;18.150;2023-04-15T01:16:11;98447.63;;;6.04;82.92
54592;BME280;40488;48.558;18.150;2023-04-15T01:18:40;98442.53;;;6.10;83.29
54592;BME280;40488;48.558;18.150;2023-04-15T01:21:09;98445.88;;;6.15;82.99
54592;BME280;40488;48.558;18.150;2023-04-15T01:23:38;98445.03;;;6.15;82.80
54592;BME280;40488;48.558;18.150;2023-04-15T01:26:08;98439.16;;;6.14;82.88
54592;BME280;40488;48.558;18.150;2023-04-15T01:28:38;98447.59;;;6.16;82.57
54592;BME280;40488;48.558;18.150;2023-04-15T01:31:08;98437.50;;;6.04;82.60
54592;BME280;40488;48.558;18.150;2023-04-15T01:33:38;98445.94;;;6.03;82.98
54592;BME280;40488;48.558;18.150;2023-04-15T01:36:19;98445.94;;;5.95;82.80
54592;BME280;40488;48.558;18.150;2023-04-15T01:38:52;98442.59;;;5.87;82.81
54592;BME280;40488;48.558;18.150;2023-04-15T01:41:24;98439.19;;;5.81;83.09
54592;BME280;40488;48.558;18.150;2023-04-15T01:43:54;98433.31;;;5.80;83.09
54592;BME280;40488;48.558;18.150;2023-04-15T01:46:25;98435.00;;;5.72;82.84
54592;BME280;40488;48.558;18.150;2023-04-15T01:48:55;98437.53;;;5.65;83.00
54592;BME280;40488;48.558;18.150;2023-04-15T01:51:26;98430.81;;;5.61;83.69
54592;BME280;40488;48.558;18.150;2023-04-15T01:53:56;98434.16;;;5.57;83.82
54592;BME280;40488;48.558;18.150;2023-04-15T01:56:28;98435.84;;;5.59;84.25
54592;BME280;40488;48.558;18.150;2023-04-15T01:58:58;98432.47;;;5.65;83.86
54592;BME280;40488;48.558;18.150;2023-04-15T02:01:29;98425.72;;;5.67;84.15
54592;BME280;40488;48.558;18.150;2023-04-15T02:04:00;98425.72;;;5.67;84.76
54592;BME280;40488;48.558;18.150;2023-04-15T02:06:32;98424.03;;;5.75;84.81
54592;BME280;40488;48.558;18.150;2023-04-15T02:09:02;98420.63;;;5.82;85.01
54592;BME280;40488;48.558;18.150;2023-04-15T02:11:34;98424.00;;;5.84;84.86
54592;BME280;40488;48.558;18.150;2023-04-15T02:14:05;98417.28;;;5.86;85.48
54592;BME280;40488;48.558;18.150;2023-04-15T02:16:35;98419.81;;;5.87;85.55
54592;BME280;40488;48.558;18.150;2023-04-15T02:19:05;98424.03;;;5.88;85.86
54592;BME280;40488;48.558;18.150;2023-04-15T02:21:38;98421.50;;;5.91;86.20
54592;BME280;40488;48.558;18.150;2023-04-15T02:24:08;98423.16;;;6.01;85.99
54592;BME280;40488;48.558;18.150;2023-04-15T02:26:43;98432.41;;;6.10;86.06
54592;BME280;40488;48.558;18.150;2023-04-15T02:29:16;98433.22;;;6.12;86.59
54592;BME280;40488;48.558;18.150;2023-04-15T02:31:46;98423.13;;;6.14;86.46
54592;BME280;40488;48.558;18.150;2023-04-15T02:34:16;98428.16;;;6.15;86.39
54592;BME280;40488;48.558;18.150;2023-04-15T02:36:46;98437.41;;;6.19;86.68
54592;BME280;40488;48.558;18.150;2023-04-15T02:39:17;98436.59;;;6.23;86.65
54592;BME280;40488;48.558;18.150;2023-04-15T02:41:49;98437.41;;;6.28;86.78
54592;BME280;40488;48.558;18.150;2023-04-15T02:44:20;98439.09;;;6.29;86.99
54592;BME280;40488;48.558;18.150;2023-04-15T02:46:57;98444.16;;;6.29;87.25
54592;BME280;40488;48.558;18.150;2023-04-15T02:49:28;98440.75;;;6.32;86.94
54592;BME280;40488;48.558;18.150;2023-04-15T02:51:58;98448.34;;;6.36;87.27
54592;BME280;40488;48.558;18.150;2023-04-15T02:54:29;98449.16;;;6.44;87.75
54592;BME280;40488;48.558;18.150;2023-04-15T02:57:02;98442.38;;;6.52;87.96
54592;BME280;40488;48.558;18.150;2023-04-15T02:59:34;98437.25;;;6.58;87.81
54592;BME280;40488;48.558;18.150;2023-04-15T03:02:04;98442.31;;;6.61;87.40
54592;BME280;40488;48.558;18.150;2023-04-15T03:04:36;98444.84;;;6.66;87.64
54592;BME280;40488;48.558;18.150;2023-04-15T03:07:07;98444.81;;;6.69;87.21
54592;BME280;40488;48.558;18.150;2023-04-15T03:09:38;98447.31;;;6.72;87.58
54592;BME280;40488;48.558;18.150;2023-04-15T03:12:10;98451.53;;;6.78;87.51
54592;BME280;40488;48.558;18.150;2023-04-15T03:14:40;98449.81;;;6.80;87.42
54592;BME280;40488;48.558;18.150;2023-04-15T03:17:10;98452.31;;;6.84;87.57
54592;BME280;40488;48.558;18.150;2023-04-15T03:19:40;98447.28;;;6.86;87.25
54592;BME280;40488;48.558;18.150;2023-04-15T03:22:11;98453.16;;;6.89;87.02
54592;BME280;40488;48.558;18.150;2023-04-15T03:24:41;98448.91;;;6.93;86.94
54592;BME280;40488;48.558;18.150;2023-04-15T03:27:13;98442.97;;;6.95;87.07
54592;BME280;40488;48.558;18.150;2023-04-15T03:29:43;98438.72;;;6.99;86.39
54592;BME280;40488;48.558;18.150;2023-04-15T03:32:16;98440.41;;;7.03;86.70
54592;BME280;40488;48.558;18.150;2023-04-15T03:34:46;98434.44;;;7.07;86.01
54592;BME280;40488;48.558;18.150;2023-04-15T03:37:16;98435.28;;;7.09;86.16
54592;BME280;40488;48.558;18.150;2023-04-15T03:39:46;98433.56;;;7.11;86.13
54592;BME280;40488;48.558;18.150;2023-04-15T03:42:18;98440.28;;;7.18;86.15
54592;BME280;40488;48.558;18.150;2023-04-15T03:44:48;98445.34;;;7.18;85.54
54592;BME280;40488;48.558;18.150;2023-04-15T03:47:18;98440.28;;;7.19;85.84
54592;BME280;40488;48.558;18.150;2023-04-15T03:49:48;98441.97;;;7.22;85.41
54592;BME280;40488;48.558;18.150;2023-04-15T03:52:18;98437.69;;;7.25;84.97
54592;BME280;40488;48.558;18.150;2023-04-15T03:54:49;98443.59;;;7.26;84.74
54592;BME280;40488;48.558;18.150;2023-04-15T03:57:20;98439.34;;;7.29;85.43
54592;BME280;40488;48.558;18.150;2023-04-15T03:59:50;98439.34;;;7.28;84.52
54592;BME280;40488;48.558;18.150;2023-04-15T04:02:20;98444.38;;;7.32;84.28
54592;BME280;40488;48.558;18.150;2023-04-15T04:04:51;98433.38;;;7.32;84.18
54592;BME280;40488;48.558;18.150;2023-04-15T04:07:22;98433.44;;;7.29;84.06
54592;BME280;40488;48.558;18.150;2023-04-15T04:09:53;98428.31;;;7.32;84.60
54592;BME280;40488;48.558;18.150;2023-04-15T04:12:24;98437.66;;;7.31;84.71
54592;BME280;40488;48.558;18.150;2023-04-15T04:14:54;98438.50;;;7.30;84.08
54592;BME280;40488;48.558;18.150;2023-04-15T04:17:24;98434.25;;;7.32;83.95
54592;BME280;40488;48.558;18.150;2023-04-15T04:19:54;98440.16;;;7.36;83.82
54592;BME280;40488;48.558;18.150;2023-04-15T04:22:25;98445.22;;;7.36;84.64
54592;BME280;40488;48.558;18.150;2023-04-15T04:24:55;98446.03;;;7.38;83.69
54592;BME280;40488;48.558;18.150;2023-04-15T04:27:29;98451.94;;;7.40;84.05
54592;BME280;40488;48.558;18.150;2023-04-15T04:29:59;98450.22;;;7.42;84.29
54592;BME280;40488;48.558;18.150;2023-04-15T04:32:29;98453.59;;;7.44;83.51
54592;BME280;40488;48.558;18.150;2023-04-15T04:34:59;98456.09;;;7.50;84.15
54592;BME280;40488;48.558;18.150;2023-04-15T04:37:29;98455.22;;;7.54;84.07
54592;BME280;40488;48.558;18.150;2023-04-15T04:40:00;98457.72;;;7.59;83.29
54592;BME280;40488;48.558;18.150;2023-04-15T04:42:31;98455.09;;;7.66;83.29
54592;BME280;40488;48.558;18.150;2023-04-15T04:45:01;98455.00;;;7.75;84.02
54592;BME280;40488;48.558;18.150;2023-04-15T04:47:31;98466.78;;;7.87;83.42
54592;BME280;40488;48.558;18.150;2023-04-15T04:50:01;98457.44;;;7.89;83.35
54592;BME280;40488;48.558;18.150;2023-04-15T04:52:32;98463.28;;;7.98;82.80
54592;BME280;40488;48.558;18.150;2023-04-15T04:55:02;98462.34;;;8.04;82.81
54592;BME280;40488;48.558;18.150;2023-04-15T04:57:34;98464.03;;;8.08;81.74
54592;BME280;40488;48.558;18.150;2023-04-15T05:00:06;98458.94;;;8.06;82.33
54592;BME280;40488;48.558;18.150;2023-04-15T05:02:37;98472.34;;;8.19;81.41
54592;BME280;40488;48.558;18.150;2023-04-15T05:05:08;98470.59;;;8.26;81.27
54592;BME280;40488;48.558;18.150;2023-04-15T05:07:38;98473.06;;;8.35;81.52
54592;BME280;40488;48.558;18.150;2023-04-15T05:10:09;98471.28;;;8.44;80.47
54592;BME280;40488;48.558;18.150;2023-04-15T05:12:40;98463.59;;;8.47;80.60
54592;BME280;40488;48.558;18.150;2023-04-15T05:15:10;98468.59;;;8.55;79.83
54592;BME280;40488;48.558;18.150;2023-04-15T05:17:41;98465.03;;;8.68;79.19
54592;BME280;40488;48.558;18.150;2023-04-15T05:20:12;98468.38;;;8.71;79.76
54592;BME280;40488;48.558;18.150;2023-04-15T05:22:42;98469.19;;;8.75;78.83
54592;BME280;40488;48.558;18.150;2023-04-15T05:25:12;98470.78;;;8.82;79.04
54592;BME280;40488;48.558;18.150;2023-04-15T05:27:44;98469.88;;;8.88;78.40
54592;BME280;40488;48.558;18.150;2023-04-15T05:30:15;98474.75;;;9.01;78.49
54592;BME280;40488;48.558;18.150;2023-04-15T05:32:45;98482.25;;;9.10;78.73
54592;BME280;40488;48.558;18.150;2023-04-15T05:35:18;98470.41;;;9.08;78.35
54592;BME280;40488;48.558;18.150;2023-04-15T05:37:48;98470.31;;;9.15;78.07
54592;BME280;40488;48.558;18.150;2023-04-15T05:40:18;98473.69;;;9.14;76.91
54592;BME280;40488;48.558;18.150;2023-04-15T05:42:50;98476.34;;;9.08;77.38
54592;BME280;40488;48.558;18.150;2023-04-15T05:45:20;98484.84;;;9.09;77.19
54592;BME280;40488;48.558;18.150;2023-04-15T05:47:50;98483.25;;;9.00;77.38
54592;BME280;40488;48.558;18.150;2023-04-15T05:50:22;98476.53;;;8.96;77.60
54592;BME280;40488;48.558;18.150;2023-04-15T05:52:52;98483.44;;;8.87;77.87
54592;BME280;40488;48.558;18.150;2023-04-15T05:55:22;98486.84;;;8.87;77.88
54592;BME280;40488;48.558;18.150;2023-04-15T05:57:53;98489.38;;;8.86;77.96
54592;BME280;40488;48.558;18.150;2023-04-15T06:00:23;98489.44;;;8.81;78.97
54592;BME280;40488;48.558;18.150;2023-04-15T06:02:55;98485.19;;;8.82;78.41
54592;BME280;40488;48.558;18.150;2023-04-15T06:05:25;98484.34;;;8.81;78.46
54592;BME280;40488;48.558;18.150;2023-04-15T06:07:55;98490.28;;;8.82;78.58
54592;BME280;40488;48.558;18.150;2023-04-15T06:10:26;98497.94;;;8.80;77.85
54592;BME280;40488;48.558;18.150;2023-04-15T06:12:58;98496.13;;;8.88;78.61
54592;BME280;40488;48.558;18.150;2023-04-15T06:15:28;98502.03;;;8.92;77.57
54592;BME280;40488;48.558;18.150;2023-04-15T06:17:58;98494.38;;;8.93;77.84
54592;BME280;40488;48.558;18.150;2023-04-15T06:20:28;98492.59;;;8.98;77.74
54592;BME280;40488;48.558;18.150;2023-04-15T06:22:58;98494.16;;;9.08;77.86
54592;BME280;40488;48.558;18.150;2023-04-15T06:25:29;98502.53;;;9.15;78.73
54592;BME280;40488;48.558;18.150;2023-04-15T06:28:00;98494.88;;;9.18;78.36
54592;BME280;40488;48.558;18.150;2023-04-15T06:30:30;98499.13;;;9.17;78.54
54592;BME280;40488;48.558;18.150;2023-04-15T06:33:00;98493.19;;;9.18;79.00
54592;BME280;40488;48.558;18.150;2023-04-15T06:35:33;98493.97;;;9.23;78.81
54592;BME280;40488;48.558;18.150;2023-04-15T06:38:03;98495.56;;;9.30;79.07
54592;BME280;40488;48.558;18.150;2023-04-15T06:40:33;98495.56;;;9.30;78.63
54592;BME280;40488;48.558;18.150;2023-04-15T06:43:04;98499.78;;;9.30;78.43
54592;BME280;40488;48.558;18.150;2023-04-15T06:45:35;98492.22;;;9.25;78.62
54592;BME280;40488;48.558;18.150;2023-04-15T06:48:06;98507.50;;;9.25;78.81
54592;BME280;40488;48.558;18.150;2023-04-15T06:50:36;98504.91;;;9.28;78.77
54592;BME280;40488;48.558;18.150;2023-04-15T06:53:06;98500.56;;;9.33;79.03
54592;BME280;40488;48.558;18.150;2023-04-15T06:55:37;98509.09;;;9.31;78.20
54592;BME280;40488;48.558;18.150;2023-04-15T06:58:09;98507.47;;;9.28;78.81
54592;BME280;40488;48.558;18.150;2023-04-15T07:00:39;98516.84;;;9.25;78.21
54592;BME280;40488;48.558;18.150;2023-04-15T07:03:11;98512.66;;;9.19;78.66
54592;BME280;40488;48.558;18.150;2023-04-15T07:05:43;98528.81;;;9.18;77.57
54592;BME280;40488;48.558;18.150;2023-04-15T07:08:13;98524.59;;;9.14;77.81
54592;BME280;40488;48.558;18.150;2023-04-15T07:10:43;98528.06;;;9.10;77.95
54592;BME280;40488;48.558;18.150;2023-04-15T07:13:15;98519.63;;;9.08;78.42
54592;BME280;40488;48.558;18.150;2023-04-15T07:15:45;98531.44;;;9.12;78.23
54592;BME280;40488;48.558;18.150;2023-04-15T07:18:15;98533.97;;;9.12;78.52
54592;BME280;40488;48.558;18.150;2023-04-15T07:20:45;98538.00;;;9.28;78.12
54592;BME280;40488;48.558;18.150;2023-04-15T07:23:15;98541.25;;;9.39;77.66
54592;BME280;40488;48.558;18.150;2023-04-15T07:25:45;98537.72;;;9.47;78.17
54592;BME280;40488;48.558;18.150;2023-04-15T07:28:17;98541.09;;;9.49;77.32
54592;BME280;40488;48.558;18.150;2023-04-15T07:30:47;98545.34;;;9.50;77.28
54592;BME280;40488;48.558;18.150;2023-04-15T07:33:17;98549.66;;;9.44;76.48
54592;BME280;40488;48.558;18.150;2023-04-15T07:35:48;98549.66;;;9.44;76.70
54592;BME280;40488;48.558;18.150;2023-04-15T07:38:18;98553.06;;;9.43;76.51
54592;BME280;40488;48.558;18.150;2023-04-15T07:40:48;98556.41;;;9.45;77.14
54592;BME280;40488;48.558;18.150;2023-04-15T07:43:19;98558.09;;;9.47;76.71
54592;BME280;40488;48.558;18.150;2023-04-15T07:45:50;98560.69;;;9.43;76.33
54592;BME280;40488;48.558;18.150;2023-04-15T07:48:20;98558.16;;;9.43;76.12
54592;BME280;40488;48.558;18.150;2023-04-15T07:50:50;98556.34;;;9.52;75.81
54592;BME280;40488;48.558;18.150;2023-04-15T07:53:21;98564.72;;;9.58;76.26
54592;BME280;40488;48.558;18.150;2023-04-15T07:55:51;98555.34;;;9.60;75.69
54592;BME280;40488;48.558;18.150;2023-04-15T07:58:22;98561.16;;;9.70;75.75
54592;BME280;40488;48.558;18.150;2023-04-15T08:00:53;98543.03;;;9.86;75.58
54592;BME280;40488;48.558;18.150;2023-04-15T08:03:24;98555.41;;;10.12;75.04
54592;BME280;40488;48.558;18.150;2023-04-15T08:05:54;98549.88;;;10.36;73.83
54592;BME280;40488;48.558;18.150;2023-04-15T08:08:24;98551.91;;;10.63;73.74
54592;BME280;40488;48.558;18.150;2023-04-15T08:10:55;98547.34;;;10.79;72.33
54592;BME280;40488;48.558;18.150;2023-04-15T08:13:26;98549.72;;;10.88;71.46
54592;BME280;40488;48.558;18.150;2023-04-15T08:16:15;98538.03;;;11.16;71.37
54592;BME280;40488;48.558;18.150;2023-04-15T08:18:47;98555.97;;;11.13;70.53
54592;BME280;40488;48.558;18.150;2023-04-15T08:21:19;98563.28;;;10.92;69.64
54592;BME280;40488;48.558;18.150;2023-04-15T08:23:51;98565.06;;;10.87;69.12
54592;BME280;40488;48.558;18.150;2023-04-15T08:26:22;98561.00;;;10.76;68.87
54592;BME280;40488;48.558;18.150;2023-04-15T08:28:54;98565.31;;;10.74;68.97
54592;BME280;40488;48.558;18.150;2023-04-15T08:31:26;98573.13;;;10.65;69.46
54592;BME280;40488;48.558;18.150;2023-04-15T08:33:58;98567.50;;;10.48;69.52
54592;BME280;40488;48.558;18.150;2023-04-15T08:36:28;98562.22;;;10.57;70.09
54592;BME280;40488;48.558;18.150;2023-04-15T08:38:59;98557.66;;;10.74;70.26
54592;BME280;40488;48.558;18.150;2023-04-15T08:41:39;98564.19;;;10.88;70.30
54592;BME280;40488;48.558;18.150;2023-04-15T08:44:13;98566.50;;;11.00;69.47
54592;BME280;40488;48.558;18.150;2023-04-15T08:46:44;98561.09;;;11.13;68.95
54592;BME280;40488;48.558;18.150;2023-04-15T08:49:16;98561.56;;;11.32;68.93
54592;BME280;40488;48.558;18.150;2023-04-15T08:51:48;98568.28;;;11.36;68.36
54592;BME280;40488;48.558;18.150;2023-04-15T08:54:18;98577.94;;;11.60;68.22
54592;BME280;40488;48.558;18.150;2023-04-15T08:56:48;98580.03;;;11.43;68.02
54592;BME280;40488;48.558;18.150;2023-04-15T08:59:20;98576.13;;;11.27;67.96
54592;BME280;40488;48.558;18.150;2023-04-15T09:01:51;98575.66;;;11.10;67.98
54592;BME280;40488;48.558;18.150;2023-04-15T09:04:22;98580.38;;;10.87;68.73
54592;BME280;40488;48.558;18.150;2023-04-15T09:06:53;98578.16;;;10.70;68.93
54592;BME280;40488;48.558;18.150;2023-04-15T09:09:23;98583.31;;;10.65;69.38
54592;BME280;40488;48.558;18.150;2023-04-15T09:11:53;98586.09;;;10.53;69.79
54592;BME280;40488;48.558;18.150;2023-04-15T09:14:27;98589.63;;;10.48;70.24
54592;BME280;40488;48.558;18.150;2023-04-15T09:17:01;98590.56;;;10.42;70.14
54592;BME280;40488;48.558;18.150;2023-04-15T09:19:32;98593.19;;;10.38;70.56
54592;BME280;40488;48.558;18.150;2023-04-15T09:22:02;98587.16;;;10.43;71.06
54592;BME280;40488;48.558;18.150;2023-04-15T09:24:35;98592.19;;;10.46;70.64
54592;BME280;40488;48.558;18.150;2023-04-15T09:27:10;98595.63;;;10.45;70.82
54592;BME280;40488;48.558;18.150;2023-04-15T09:29:50;98595.56;;;10.48;71.17
54592;BME280;40488;48.558;18.150;2023-04-15T09:32:20;98595.63;;;10.45;70.78
54592;BME280;40488;48.558;18.150;2023-04-15T09:34:52;98599.16;;;10.38;70.72
54592;BME280;40488;48.558;18.150;2023-04-15T09:37:34;98602.50;;;10.40;71.08
54592;BME280;40488;48.558;18.150;2023-04-15T09:40:05;98594.84;;;10.40;70.92
54592;BME280;40488;48.558;18.150;2023-04-15T09:42:53;98604.03;;;10.50;70.36
54592;BME280;40488;48.558;18.150;2023-04-15T09:45:25;98598.84;;;10.53;70.19
54592;BME280;40488;48.558;18.150;2023-04-15T09:47:57;98595.41;;;10.56;69.69
54592;BME280;40488;48.558;18.150;2023-04-15T09:50:29;98604.75;;;10.57;69.56
54592;BME280;40488;48.558;18.150;2023-04-15T09:53:02;98605.56;;;10.60;69.43
54592;BME280;40488;48.558;18.150;2023-04-15T09:55:33;98602.06;;;10.64;69.42
54592;BME280;40488;48.558;18.150;2023-04-15T09:58:07;98603.81;;;10.62;69.03
54592;BME280;40488;48.558;18.150;2023-04-15T10:00:40;98600.50;;;10.57;69.21
54592;BME280;40488;48.558;18.150;2023-04-15T10:03:10;98604.06;;;10.47;69.19
54592;BME280;40488;48.558;18.150;2023-04-15T10:05:41;98604.13;;;10.44;69.16
54592;BME280;40488;48.558;18.150;2023-04-15T10:08:12;98612.72;;;10.40;69.12
54592;BME280;40488;48.558;18.150;2023-04-15T10:10:43;98612.59;;;10.46;69.16
54592;BME280;40488;48.558;18.150;2023-04-15T10:13:13;98616.03;;;10.45;69.36
54592;BME280;40488;48.558;18.150;2023-04-15T10:15:59;98608.34;;;10.47;69.57
54592;BME280;40488;48.558;18.150;2023-04-15T10:18:31;98609.13;;;10.50;69.57
54592;BME280;40488;48.558;18.150;2023-04-15T10:21:04;98610.75;;;10.54;69.52
54592;BME280;40488;48.558;18.150;2023-04-15T10:23:34;98619.34;;;10.50;69.39
54592;BME280;40488;48.558;18.150;2023-04-15T10:26:05;98617.78;;;10.42;69.24
54592;BME280;40488;48.558;18.150;2023-04-15T10:28:36;98618.63;;;10.42;69.29
54592;BME280;40488;48.558;18.150;2023-04-15T10:31:08;98610.03;;;10.46;68.99
54592;BME280;40488;48.558;18.150;2023-04-15T10:33:41;98614.41;;;10.41;69.06
54592;BME280;40488;48.558;18.150;2023-04-15T10:36:13;98611.59;;;10.53;69.45
54592;BME280;40488;48.558;18.150;2023-04-15T10:38:45;98606.22;;;10.70;69.58
54592;BME280;40488;48.558;18.150;2023-04-15T10:41:17;98610.31;;;10.78;69.11
54592;BME280;40488;48.558;18.150;2023-04-15T10:43:51;98600.16;;;10.75;68.41
54592;BME280;40488;48.558;18.150;2023-04-15T10:46:26;98598.34;;;10.81;68.49
54592;BME280;40488;48.558;18.150;2023-04-15T10:49:08;98591.22;;;10.98;68.75
54592;BME280;40488;48.558;18.150;2023-04-15T10:51:41;98587.66;;;11.05;68.01
54592;BME280;40488;48.558;18.150;2023-04-15T10:54:13;98592.66;;;11.11;67.43
54592;BME280;40488;48.558;18.150;2023-04-15T10:56:44;98584.09;;;11.12;67.29
54592;BME280;40488;48.558;18.150;2023-04-15T10:59:15;98592.56;;;11.14;67.46
54592;BME280;40488;48.558;18.150;2023-04-15T11:01:52;98584.97;;;11.12;67.17
54592;BME280;40488;48.558;18.150;2023-04-15T11:07:35;98586.47;;;11.21;66.87
54592;BME280;40488;48.558;18.150;2023-04-15T11:13:02;98595.81;;;11.22;67.27
54592;BME280;40488;48.558;18.150;2023-04-15T11:15:35;98599.13;;;11.27;67.40
54592;BME280;40488;48.558;18.150;2023-04-15T11:18:11;98594.06;;;11.24;67.16
54592;BME280;40488;48.558;18.150;2023-04-15T11:20:43;98586.47;;;11.21;66.88
54592;BME280;40488;48.558;18.150;2023-04-15T11:23:14;98596.66;;;11.22;66.72
54592;BME280;40488;48.558;18.150;2023-04-15T11:25:45;98600.88;;;11.25;66.55
54592;BME280;40488;48.558;18.150;2023-04-15T11:28:16;98593.41;;;11.14;66.57
54592;BME280;40488;48.558;18.150;2023-04-15T11:30:47;98599.63;;;11.03;67.69
54592;BME280;40488;48.558;18.150;2023-04-15T11:33:18;98592.28;;;10.86;68.74
54592;BME280;40488;48.558;18.150;2023-04-15T11:35:51;98610.25;;;10.82;70.07
54592;BME280;40488;48.558;18.150;2023-04-15T11:38:22;98606.00;;;10.82;71.22
54592;BME280;40488;48.558;18.150;2023-04-15T11:40:52;98615.59;;;10.69;72.40
54592;BME280;40488;48.558;18.150;2023-04-15T11:43:26;98622.53;;;10.61;73.50
54592;BME280;40488;48.558;18.150;2023-04-15T11:45:57;98629.75;;;10.38;75.12
54592;BME280;40488;48.558;18.150;2023-04-15T11:48:31;98628.44;;;10.13;76.30
54592;BME280;40488;48.558;18.150;2023-04-15T11:51:03;98631.16;;;10.01;76.67
54592;BME280;40488;48.558;18.150;2023-04-15T11:53:37;98623.50;;;10.01;77.65
54592;BME280;40488;48.558;18.150;2023-04-15T11:56:08;98632.13;;;9.94;78.32
54592;BME280;40488;48.558;18.150;2023-04-15T11:58:38;98623.63;;;9.95;79.45
54592;BME280;40488;48.558;18.150;2023-04-15T12:01:06;98633.72;;;10.01;79.72
54592;BME280;40488;48.558;18.150;2023-04-15T12:03:38;98643.88;;;10.04;80.46
54592;BME280;40488;48.558;18.150;2023-04-15T12:06:13;98632.69;;;10.13;81.38
54592;BME280;40488;48.558;18.150;2023-04-15T12:11:32;98624.47;;;10.47;81.82
54592;BME280;40488;48.558;18.150;2023-04-15T12:14:05;98623.31;;;10.65;81.54
54592;BME280;40488;48.558;18.150;2023-04-15T12:16:38;98625.56;;;10.82;81.57
54592;BME280;40488;48.558;18.150;2023-04-15T12:19:22;98618.34;;;11.03;81.55
54592;BME280;40488;48.558;18.150;2023-04-15T12:21:56;98617.31;;;11.12;80.95
54592;BME280;40488;48.558;18.150;2023-04-15T12:24:28;98619.66;;;11.21;80.41
54592;BME280;40488;48.558;18.150;2023-04-15T12:27:01;98622.72;;;11.38;79.95
54592;BME280;40488;48.558;18.150;2023-04-15T12:29:32;98627.22;;;11.27;79.13
54592;BME280;40488;48.558;18.150;2023-04-15T12:32:06;98632.38;;;11.24;78.40
54592;BME280;40488;48.558;18.150;2023-04-15T12:34:38;98633.19;;;11.26;78.18
54592;BME280;40488;48.558;18.150;2023-04-15T12:37:10;98638.34;;;11.23;78.03
54592;BME280;40488;48.558;18.150;2023-04-15T12:39:40;98641.19;;;11.09;77.92
54592;BME280;40488;48.558;18.150;2023-04-15T12:42:10;98644.72;;;11.02;77.80
54592;BME280;40488;48.558;18.150;2023-04-15T12:44:39;98649.88;;;11.01;78.37
54592;BME280;40488;48.558;18.150;2023-04-15T12:47:09;98648.22;;;10.98;78.84
54592;BME280;40488;48.558;18.150;2023-04-15T12:49:40;98655.22;;;10.89;79.23
54592;BME280;40488;48.558;18.150;2023-04-15T12:52:09;98659.78;;;10.71;78.86
54592;BME280;40488;48.558;18.150;2023-04-15T12:54:38;98663.41;;;10.58;78.95
54592;BME280;40488;48.558;18.150;2023-04-15T12:57:07;98665.50;;;10.35;78.99
54592;BME280;40488;48.558;18.150;2023-04-15T12:59:36;98673.47;;;10.16;79.46
54592;BME280;40488;48.558;18.150;2023-04-15T13:02:05;98677.97;;;9.97;79.61
54592;BME280;40488;48.558;18.150;2023-04-15T13:04:34;98678.94;;;9.88;80.84
54592;BME280;40488;48.558;18.150;2023-04-15T13:07:04;98683.19;;;9.88;81.33
54592;BME280;40488;48.558;18.150;2023-04-15T13:09:33;98683.16;;;9.89;81.26
54592;BME280;40488;48.558;18.150;2023-04-15T13:12:02;98683.19;;;9.88;81.49
54592;BME280;40488;48.558;18.150;2023-04-15T13:14:31;98681.47;;;9.90;81.46
54592;BME280;40488;48.558;18.150;2023-04-15T13:17:00;98678.16;;;9.82;80.38
54592;BME280;40488;48.558;18.150;2023-04-15T13:19:31;98683.19;;;9.88;80.39
54592;BME280;40488;48.558;18.150;2023-04-15T13:22:00;98683.19;;;9.88;80.63
54592;BME280;40488;48.558;18.150;2023-04-15T13:24:30;98688.34;;;9.82;80.56
54592;BME280;40488;48.558;18.150;2023-04-15T13:26:59;98681.63;;;9.78;80.94